createdAt,value
2022-09-06T00:01:15.318Z,4.80
2022-09-06T00:03:43.378Z,4.00
2022-09-06T00:06:15.924Z,3.80
2022-09-06T00:08:45.659Z,4.55
2022-09-06T00:11:15.013Z,5.20
2022-09-06T00:13:43.204Z,4.78
2022-09-06T00:16:14.423Z,4.00
2022-09-06T00:18:43.754Z,4.00
2022-09-06T00:21:23.956Z,3.55
2022-09-06T00:23:52.949Z,3.90
2022-09-06T00:26:21.912Z,3.92
2022-09-06T00:28:50.343Z,3.60
2022-09-06T00:31:24.611Z,4.30
2022-09-06T00:33:53.149Z,4.95
2022-09-06T00:36:22.053Z,4.00
2022-09-06T00:38:50.117Z,3.78
2022-09-06T00:41:18.019Z,4.05
2022-09-06T00:43:46.242Z,4.38
2022-09-06T00:46:21.034Z,4.53
2022-09-06T00:48:52.480Z,5.55
2022-09-06T00:51:22.204Z,5.60
2022-09-06T00:53:50.823Z,5.72
2022-09-06T00:56:18.980Z,6.13
2022-09-06T00:58:48.182Z,5.63
2022-09-06T01:01:16.315Z,5.05
2022-09-06T01:03:44.208Z,4.45
2022-09-06T01:06:26.469Z,4.32
2022-09-06T01:09:06.705Z,3.90
2022-09-06T01:12:05.816Z,3.92
2022-09-06T01:14:54.872Z,4.30
2022-09-06T01:17:41.652Z,5.03
2022-09-06T01:20:33.621Z,4.60
2022-09-06T01:23:37.611Z,4.07
2022-09-06T01:26:42.897Z,3.50
2022-09-06T01:34:08.502Z,5.53
2022-09-06T01:36:45.928Z,6.18
2022-09-06T01:39:27.093Z,6.63
2022-09-06T01:41:57.954Z,5.07
2022-09-06T01:44:27.929Z,5.20
2022-09-06T01:47:10.766Z,4.32
2022-09-06T01:49:56.791Z,4.72
2022-09-06T01:52:42.339Z,4.38
2022-09-06T01:55:28.061Z,4.40
2022-09-06T01:58:22.590Z,4.20
2022-09-06T02:01:19.247Z,4.10
2022-09-06T02:04:11.201Z,3.80
2022-09-06T02:06:50.975Z,4.20
2022-09-06T02:09:23.778Z,4.25
2022-09-06T02:11:59.688Z,3.63
2022-09-06T02:19:10.748Z,4.55
2022-09-06T02:21:42.637Z,4.00
2022-09-06T02:24:20.859Z,4.13
2022-09-06T02:26:49.941Z,4.30
2022-09-06T02:29:18.578Z,5.22
2022-09-06T02:31:55.705Z,4.30
2022-09-06T02:34:23.632Z,4.43
2022-09-06T02:36:51.847Z,4.88
2022-09-06T02:39:19.731Z,4.40
2022-09-06T02:41:48.346Z,5.03
2022-09-06T02:44:16.325Z,5.50
2022-09-06T02:51:18.934Z,5.90
2022-09-06T02:53:47.265Z,5.75
2022-09-06T02:56:15.255Z,5.88
2022-09-06T02:58:43.555Z,7.28
2022-09-06T03:01:11.521Z,6.18
2022-09-06T03:03:39.396Z,5.18
2022-09-06T03:06:07.433Z,5.97
2022-09-06T03:08:36.562Z,5.68
2022-09-06T03:11:04.662Z,6.35
2022-09-06T03:13:32.494Z,6.05
2022-09-06T03:16:01.514Z,5.82
2022-09-06T03:18:31.148Z,7.15
2022-09-06T03:20:59.797Z,8.18
2022-09-06T03:23:29.787Z,7.93
2022-09-06T03:25:58.001Z,7.32
2022-09-06T03:28:26.163Z,7.60
2022-09-06T03:30:54.070Z,8.50
2022-09-06T03:33:22.791Z,7.65
2022-09-06T03:35:57.312Z,7.03
2022-09-06T03:38:27.110Z,7.32
2022-09-06T03:40:55.554Z,6.78
2022-09-06T03:43:24.971Z,6.90
2022-09-06T03:45:57.208Z,6.65
2022-09-06T03:48:28.410Z,7.30
2022-09-06T03:50:58.009Z,7.40
2022-09-06T03:53:27.172Z,6.65
2022-09-06T03:55:57.612Z,6.85
2022-09-06T03:58:30.659Z,6.70
2022-09-06T04:01:03.692Z,6.70
2022-09-06T04:05:59.495Z,6.75
2022-09-06T04:08:27.860Z,6.03
2022-09-06T04:10:57.945Z,6.50
2022-09-06T04:13:27.827Z,5.00
2022-09-06T04:15:55.955Z,5.85
2022-09-06T04:18:24.276Z,8.25
2022-09-06T04:20:54.552Z,8.77
2022-09-06T04:23:23.726Z,8.02
2022-09-06T04:25:53.780Z,8.98
2022-09-06T04:28:22.640Z,8.48
2022-09-06T04:35:23.312Z,7.97
2022-09-06T04:37:51.192Z,7.38
2022-09-06T04:40:18.996Z,7.22
2022-09-06T04:42:46.821Z,7.28
2022-09-06T04:45:14.788Z,7.18
2022-09-06T04:47:42.812Z,7.22
2022-09-06T04:50:10.753Z,7.57
2022-09-06T04:52:39.653Z,7.57
2022-09-06T04:55:07.864Z,7.68
2022-09-06T04:57:35.694Z,7.43
2022-09-06T05:00:04.305Z,8.25
2022-09-06T05:02:32.351Z,7.43
2022-09-06T05:05:00.247Z,6.75
2022-09-06T05:07:28.179Z,6.40
2022-09-06T05:09:55.977Z,5.38
2022-09-06T05:12:23.868Z,5.82
2022-09-06T05:14:51.688Z,5.38
2022-09-06T05:17:19.533Z,5.30
2022-09-06T05:19:47.946Z,5.50
2022-09-06T05:22:15.852Z,4.72
2022-09-06T05:24:44.058Z,4.72
2022-09-06T05:27:12.775Z,4.63
2022-09-06T05:29:40.620Z,5.72
2022-09-06T05:32:08.590Z,4.55
2022-09-06T05:34:36.457Z,4.85
2022-09-06T05:37:04.370Z,4.38
2022-09-06T05:39:32.328Z,4.47
2022-09-06T05:42:00.672Z,4.50
2022-09-06T05:44:28.541Z,4.80
2022-09-06T05:46:56.389Z,4.65
2022-09-06T05:49:24.253Z,4.40
2022-09-06T05:51:52.353Z,4.35
2022-09-06T05:54:20.253Z,3.47
2022-09-06T05:56:48.107Z,3.72
2022-09-06T05:59:16.251Z,3.38
2022-09-06T06:06:18.708Z,3.90
2022-09-06T06:08:46.906Z,3.10
2022-09-06T06:11:15.075Z,4.13
2022-09-06T06:13:43.583Z,3.60
2022-09-06T06:16:13.986Z,3.30
2022-09-06T06:23:15.180Z,3.00
2022-09-06T06:25:43.011Z,3.08
2022-09-06T06:28:29.602Z,3.72
2022-09-06T06:30:57.936Z,3.80
2022-09-06T06:33:25.761Z,3.80
2022-09-06T06:36:08.525Z,3.90
2022-09-06T06:38:38.176Z,3.95
2022-09-06T06:41:08.986Z,3.50
2022-09-06T06:43:37.960Z,3.47
2022-09-06T06:46:11.304Z,3.53
2022-09-06T06:48:43.778Z,3.97
2022-09-06T06:53:40.583Z,3.80
2022-09-06T06:56:22.379Z,4.78
2022-09-06T06:58:52.633Z,4.40
2022-09-06T07:01:22.114Z,3.88
2022-09-06T07:03:50.545Z,3.90
2022-09-06T07:06:19.990Z,3.80
2022-09-06T07:08:48.700Z,4.10
2022-09-06T07:11:20.473Z,4.45
2022-09-06T07:13:50.947Z,4.40
2022-09-06T07:16:23.564Z,4.65
2022-09-06T07:18:53.076Z,6.20
2022-09-06T07:21:42.575Z,6.07
2022-09-06T07:24:10.775Z,5.88
2022-09-06T07:26:40.237Z,4.32
2022-09-06T07:29:08.671Z,4.25
2022-09-06T07:34:26.027Z,4.47
2022-09-06T07:36:55.433Z,4.55
2022-09-06T07:39:23.665Z,4.82
2022-09-06T07:41:51.870Z,4.05
2022-09-06T07:44:19.774Z,3.55
2022-09-06T07:46:47.664Z,3.50
2022-09-06T07:49:15.597Z,3.72
2022-09-06T07:51:43.906Z,3.33
2022-09-06T07:54:30.558Z,3.30
2022-09-06T07:56:59.002Z,2.75
2022-09-06T07:59:27.619Z,2.50
2022-09-06T08:01:55.716Z,2.55
2022-09-06T08:04:23.765Z,2.60
2022-09-06T08:09:40.075Z,3.17
2022-09-06T08:12:08.353Z,3.35
2022-09-06T08:14:36.449Z,2.50
2022-09-06T08:17:04.933Z,3.25
2022-09-06T08:19:32.918Z,3.60
2022-09-06T08:22:00.852Z,3.00
2022-09-06T08:24:28.894Z,3.13
2022-09-06T08:26:56.772Z,3.03
2022-09-06T08:29:26.024Z,3.22
2022-09-06T08:31:53.969Z,2.97
2022-09-06T08:34:21.964Z,3.55
2022-09-06T08:36:49.831Z,3.88
2022-09-06T08:39:17.757Z,3.08
2022-09-06T08:42:07.162Z,3.58
2022-09-06T08:44:58.803Z,3.50
2022-09-06T08:47:26.971Z,2.95
2022-09-06T08:50:01.160Z,3.53
2022-09-06T08:53:06.069Z,3.45
2022-09-06T08:55:55.102Z,3.40
2022-09-06T08:58:25.719Z,3.55
2022-09-06T09:01:12.728Z,3.43
2022-09-06T09:03:42.646Z,3.30
2022-09-06T09:06:11.120Z,3.03
2022-09-06T09:09:06.165Z,3.20
2022-09-06T09:11:36.225Z,3.20
2022-09-06T09:14:36.606Z,2.90
2022-09-06T09:17:11.094Z,3.25
2022-09-06T09:19:41.727Z,3.47
2022-09-06T09:22:18.638Z,2.95
2022-09-06T09:24:48.607Z,3.30
2022-09-06T09:27:42.501Z,3.10
2022-09-06T09:32:59.517Z,2.90
2022-09-06T09:35:30.307Z,2.80
2022-09-06T09:38:11.023Z,2.90
2022-09-06T09:40:42.926Z,3.20
2022-09-06T09:43:19.586Z,3.05
2022-09-06T09:46:14.583Z,3.00
2022-09-06T09:49:02.712Z,2.67
2022-09-06T09:51:32.378Z,3.00
2022-09-06T09:54:04.172Z,3.28
2022-09-06T09:56:53.978Z,2.83
2022-09-06T09:59:57.217Z,2.80
2022-09-06T10:02:27.584Z,2.92
2022-09-06T10:05:18.155Z,3.20
2022-09-06T10:07:46.061Z,3.10
2022-09-06T10:10:20.761Z,3.25
2022-09-06T10:17:50.826Z,2.45
2022-09-06T10:20:19.153Z,2.78
2022-09-06T10:26:55.868Z,3.53
2022-09-06T10:29:35.616Z,3.50
2022-09-06T10:32:31.119Z,2.90
2022-09-06T10:35:16.679Z,3.10
2022-09-06T10:38:23.977Z,3.05
2022-09-06T10:41:10.380Z,3.28
2022-09-06T10:44:06.350Z,2.95
2022-09-06T10:46:35.810Z,3.03
2022-09-06T10:49:03.729Z,2.63
2022-09-06T10:51:46.251Z,2.90
2022-09-06T10:54:16.840Z,3.45
2022-09-06T10:56:44.849Z,2.58
2022-09-06T11:02:26.683Z,2.40
2022-09-06T11:10:45.728Z,2.63
2022-09-06T11:13:17.211Z,2.58
2022-09-06T11:16:10.707Z,2.38
2022-09-06T11:23:48.536Z,2.53
2022-09-06T11:26:19.090Z,2.50
2022-09-06T11:28:53.416Z,2.97
2022-09-06T11:34:56.181Z,2.80
2022-09-06T11:37:28.189Z,3.45
2022-09-06T11:43:14.132Z,2.50
2022-09-06T11:45:41.875Z,2.67
2022-09-06T11:48:25.418Z,3.03
2022-09-06T11:51:03.450Z,3.30
2022-09-06T11:53:34.163Z,3.45
2022-09-06T11:56:02.116Z,3.20
2022-09-06T11:58:41.955Z,2.95
2022-09-06T12:01:16.704Z,3.50
2022-09-06T12:04:09.457Z,2.83
2022-09-06T12:06:43.948Z,2.88
2022-09-06T12:09:36.578Z,2.97
2022-09-06T12:16:14.132Z,2.80
2022-09-06T12:18:47.802Z,3.47
2022-09-06T12:21:38.804Z,3.40
2022-09-06T12:24:09.419Z,2.83
2022-09-06T12:26:54.476Z,2.80
2022-09-06T12:29:26.091Z,2.83
2022-09-06T12:32:05.892Z,2.38
2022-09-06T12:34:35.726Z,3.00
2022-09-06T12:37:10.676Z,3.20
2022-09-06T12:39:38.835Z,2.20
2022-09-06T12:42:12.775Z,2.40
2022-09-06T12:45:06.185Z,2.30
2022-09-06T12:47:37.379Z,2.72
2022-09-06T12:50:13.000Z,2.80
2022-09-06T12:52:47.349Z,2.38
2022-09-06T12:55:24.230Z,3.20
2022-09-06T12:57:58.228Z,2.65
2022-09-06T13:00:32.859Z,3.15
2022-09-06T13:03:19.790Z,3.10
2022-09-06T13:10:42.151Z,2.40
2022-09-06T13:13:10.533Z,2.80
2022-09-06T13:15:38.582Z,2.47
2022-09-06T13:18:31.179Z,2.60
2022-09-06T13:23:27.117Z,2.45
2022-09-06T13:25:56.175Z,2.03
2022-09-06T13:28:29.633Z,2.47
2022-09-06T13:31:17.629Z,2.40
2022-09-06T13:33:55.095Z,2.65
2022-09-06T13:36:49.111Z,1.95
2022-09-06T13:39:49.654Z,2.35
2022-09-06T13:42:35.636Z,2.72
2022-09-06T13:45:19.922Z,2.50
2022-09-06T13:47:47.806Z,2.10
2022-09-06T13:50:16.797Z,2.78
2022-09-06T13:52:44.644Z,2.35
2022-09-06T13:55:18.417Z,2.00
2022-09-06T13:57:46.368Z,2.25
2022-09-06T14:00:14.817Z,2.30
2022-09-06T14:02:43.535Z,2.22
2022-09-06T14:05:12.043Z,2.17
2022-09-06T14:07:39.934Z,2.72
2022-09-06T14:10:08.070Z,2.55
2022-09-06T14:12:36.189Z,2.45
2022-09-06T14:15:05.155Z,2.33
2022-09-06T14:17:33.254Z,2.42
2022-09-06T14:20:01.171Z,1.95
2022-09-06T14:22:31.252Z,2.50
2022-09-06T14:24:59.144Z,2.17
2022-09-06T14:27:27.360Z,2.42
2022-09-06T14:29:55.354Z,2.08
2022-09-06T14:32:23.187Z,2.45
2022-09-06T14:34:50.961Z,2.45
2022-09-06T14:37:19.019Z,2.95
2022-09-06T14:39:46.970Z,3.67
2022-09-06T14:49:21.700Z,3.33
2022-09-06T14:51:49.530Z,3.28
2022-09-06T14:54:17.376Z,3.33
2022-09-06T14:56:45.366Z,3.47
2022-09-06T14:59:13.305Z,3.78
2022-09-06T15:01:41.776Z,4.40
2022-09-06T15:04:11.233Z,3.17
2022-09-06T15:06:41.239Z,3.90
2022-09-06T15:09:11.547Z,3.53
2022-09-06T15:11:45.191Z,3.65
2022-09-06T15:14:22.621Z,3.60
2022-09-06T15:16:56.027Z,3.70
2022-09-06T15:19:25.811Z,3.60
2022-09-06T15:21:55.476Z,4.05
2022-09-06T15:24:24.997Z,4.05
2022-09-06T15:26:53.704Z,3.78
2022-09-06T15:29:22.635Z,3.70
2022-09-06T15:31:51.297Z,3.30
2022-09-06T15:34:21.308Z,3.50
2022-09-06T15:36:50.142Z,3.53
2022-09-06T15:39:18.659Z,3.70
2022-09-06T15:41:46.846Z,3.83
2022-09-06T15:44:16.979Z,3.63
2022-09-06T15:46:57.657Z,3.78
2022-09-06T15:49:28.651Z,3.70
2022-09-06T15:51:58.395Z,3.83
2022-09-06T15:55:41.712Z,3.72
2022-09-06T15:58:09.661Z,3.55
2022-09-06T16:00:37.661Z,4.18
2022-09-06T16:03:23.956Z,3.97
2022-09-06T16:06:27.257Z,4.18
2022-09-06T16:08:58.763Z,4.22
2022-09-06T16:12:17.084Z,4.43
2022-09-06T16:14:44.952Z,3.92
2022-09-06T16:17:12.798Z,3.97
2022-09-06T16:19:40.691Z,4.28
2022-09-06T16:22:08.646Z,4.15
2022-09-06T16:24:36.489Z,4.05
2022-09-06T16:27:04.391Z,4.22
2022-09-06T16:29:32.320Z,4.90
2022-09-06T16:32:00.703Z,4.47
2022-09-06T16:34:28.642Z,5.50
2022-09-06T16:36:57.177Z,5.97
2022-09-06T16:39:25.138Z,4.25
2022-09-06T16:41:53.129Z,4.88
2022-09-06T16:44:21.090Z,4.68
2022-09-06T16:46:49.963Z,4.47
2022-09-06T16:49:19.384Z,4.50
2022-09-06T16:51:49.089Z,4.82
2022-09-06T16:54:18.332Z,4.15
2022-09-06T16:56:46.310Z,4.80
2022-09-06T16:59:17.101Z,5.13
2022-09-06T17:01:45.725Z,5.40
2022-09-06T17:04:14.440Z,5.57
2022-09-06T17:06:44.683Z,5.18
2022-09-06T17:09:15.349Z,4.57
2022-09-06T17:11:43.347Z,5.05
2022-09-06T17:14:11.630Z,4.35
2022-09-06T17:16:58.188Z,4.20
2022-09-06T17:19:26.572Z,4.88
2022-09-06T17:21:54.472Z,5.35
2022-09-06T17:28:57.705Z,5.18
2022-09-06T17:31:26.287Z,4.72
2022-09-06T17:33:54.463Z,5.95
2022-09-06T17:36:30.494Z,4.93
2022-09-06T17:39:10.872Z,5.25
2022-09-06T17:41:41.961Z,5.32
2022-09-06T17:44:11.676Z,6.03
2022-09-06T17:46:52.028Z,5.25
2022-09-06T17:49:28.514Z,5.35
2022-09-06T17:51:57.002Z,5.68
2022-09-06T17:54:25.102Z,6.00
2022-09-06T17:56:53.126Z,6.10
2022-09-06T17:59:21.263Z,6.50
2022-09-06T18:01:49.111Z,5.78
2022-09-06T18:04:18.071Z,6.18
2022-09-06T18:06:46.890Z,5.47
2022-09-06T18:09:17.579Z,6.20
2022-09-06T18:11:47.110Z,41.17
2022-09-06T18:14:18.761Z,10.75
2022-09-06T18:16:49.136Z,15.43
2022-09-06T18:19:18.098Z,13.30
2022-09-06T18:21:46.747Z,19.33
2022-09-06T18:24:15.270Z,17.90
2022-09-06T18:26:43.885Z,17.02
2022-09-06T18:29:14.737Z,15.05
2022-09-06T18:31:43.608Z,25.20
2022-09-06T18:34:12.480Z,22.60
2022-09-06T18:36:40.921Z,21.75
2022-09-06T18:39:08.878Z,19.67
2022-09-06T18:41:55.456Z,18.33
2022-09-06T18:44:23.473Z,18.17
2022-09-06T18:46:55.761Z,19.20
2022-09-06T18:49:24.251Z,16.52
2022-09-06T18:51:52.284Z,14.15
2022-09-06T18:54:45.565Z,11.90
2022-09-06T18:57:15.461Z,11.35
2022-09-06T18:59:44.609Z,10.60
2022-09-06T19:02:14.341Z,11.00
2022-09-06T19:04:42.753Z,11.25
2022-09-06T19:07:10.940Z,10.90
2022-09-06T19:09:38.993Z,10.70
2022-09-06T19:12:07.344Z,10.45
2022-09-06T19:14:35.244Z,10.73
2022-09-06T19:17:03.291Z,10.68
2022-09-06T19:19:31.247Z,11.63
2022-09-06T19:21:59.233Z,11.18
2022-09-06T19:24:27.248Z,11.25
2022-09-06T19:26:55.692Z,8.60
2022-09-06T19:29:23.639Z,9.05
2022-09-06T19:31:52.242Z,8.55
2022-09-06T19:34:20.468Z,8.20
2022-09-06T19:36:50.083Z,7.70
2022-09-06T19:39:18.264Z,7.35
2022-09-06T19:41:47.647Z,6.45
2022-09-06T19:44:17.060Z,7.25
2022-09-06T19:46:47.011Z,6.72
2022-09-06T19:49:17.222Z,7.50
2022-09-06T19:51:46.593Z,7.00
2022-09-06T19:54:15.874Z,7.03
2022-09-06T19:56:44.815Z,7.68
2022-09-06T19:59:15.334Z,7.97
2022-09-06T20:01:46.794Z,7.72
2022-09-06T20:04:15.788Z,7.47
2022-09-06T20:06:43.840Z,6.97
2022-09-06T20:09:12.100Z,7.18
2022-09-06T20:11:41.296Z,7.28
2022-09-06T20:14:11.403Z,8.07
2022-09-06T20:16:42.171Z,7.53
2022-09-06T20:19:12.166Z,7.60
2022-09-06T20:21:40.206Z,7.75
2022-09-06T20:24:08.473Z,6.95
2022-09-06T20:26:36.367Z,6.95
2022-09-06T20:29:05.152Z,7.40
2022-09-06T20:31:34.359Z,6.25
2022-09-06T20:34:04.281Z,6.85
2022-09-06T20:36:32.479Z,7.00
2022-09-06T20:39:00.376Z,7.07
2022-09-06T20:41:28.548Z,7.93
2022-09-06T20:43:58.760Z,7.28
2022-09-06T20:46:32.298Z,7.82
2022-09-06T20:49:04.832Z,6.97
2022-09-06T20:51:34.551Z,7.00
2022-09-06T20:54:04.264Z,7.70
2022-09-06T20:56:34.736Z,7.78
2022-09-06T20:59:13.122Z,6.43
2022-09-06T21:01:46.107Z,7.28
2022-09-06T21:04:16.472Z,6.95
2022-09-06T21:06:45.934Z,7.75
2022-09-06T21:09:15.258Z,9.80
2022-09-06T21:11:43.864Z,10.10
2022-09-06T21:14:12.691Z,9.60
2022-09-06T21:16:41.326Z,10.07
2022-09-06T21:19:10.708Z,9.80
2022-09-06T21:21:39.237Z,9.98
2022-09-06T21:24:08.218Z,9.20
2022-09-06T21:26:36.413Z,9.52
2022-09-06T21:29:04.891Z,8.88
2022-09-06T21:31:36.263Z,7.93
2022-09-06T21:34:07.538Z,8.77
2022-09-06T21:36:37.194Z,8.20
2022-09-06T21:39:10.903Z,7.32
2022-09-06T21:41:40.404Z,8.23
2022-09-06T21:44:09.514Z,8.25
2022-09-06T21:46:39.054Z,7.00
2022-09-06T21:49:09.834Z,7.80
2022-09-06T21:51:37.926Z,8.25
2022-09-06T21:54:12.810Z,7.57
2022-09-06T21:56:44.946Z,8.88
2022-09-06T21:59:12.982Z,8.02
2022-09-06T22:01:43.171Z,8.57
2022-09-06T22:04:13.777Z,7.80
2022-09-06T22:06:41.716Z,7.70
2022-09-06T22:09:11.662Z,8.25
2022-09-06T22:11:42.466Z,8.48
2022-09-06T22:14:12.771Z,8.18
2022-09-06T22:16:41.177Z,9.13
2022-09-06T22:19:09.897Z,7.35
2022-09-06T22:21:38.853Z,7.97
2022-09-06T22:24:09.785Z,7.35
2022-09-06T22:26:39.078Z,8.25
2022-09-06T22:29:09.292Z,7.63
2022-09-06T22:31:37.949Z,7.85
2022-09-06T22:34:06.189Z,8.00
2022-09-06T22:36:34.415Z,8.07
2022-09-06T22:39:02.388Z,7.88
2022-09-06T22:41:32.917Z,7.95
2022-09-06T22:44:02.367Z,8.52
2022-09-06T22:46:30.997Z,7.05
2022-09-06T22:48:59.430Z,7.47
2022-09-06T22:51:27.364Z,7.95
2022-09-06T22:53:55.366Z,8.23
2022-09-06T22:56:23.450Z,8.32
2022-09-06T22:58:51.313Z,7.88
2022-09-06T23:01:19.204Z,8.25
2022-09-06T23:03:48.171Z,8.13
2022-09-06T23:06:16.366Z,8.15
2022-09-06T23:08:44.271Z,8.52
2022-09-06T23:11:15.347Z,7.32
2022-09-06T23:13:43.993Z,7.85
2022-09-06T23:16:15.035Z,7.68
2022-09-06T23:18:43.256Z,6.78
2022-09-06T23:21:13.641Z,7.35
2022-09-06T23:23:42.268Z,6.50
2022-09-06T23:26:13.621Z,6.93
2022-09-06T23:28:41.993Z,6.95
2022-09-06T23:31:12.544Z,6.38
2022-09-06T23:33:41.832Z,6.28
2022-09-06T23:36:12.378Z,6.70
2022-09-06T23:38:41.353Z,6.57
2022-09-06T23:41:10.379Z,6.00
2022-09-06T23:43:38.890Z,6.03
2022-09-06T23:46:08.096Z,6.43
2022-09-06T23:48:36.389Z,5.90
2022-09-06T23:51:04.447Z,7.00
2022-09-06T23:53:33.266Z,6.53
2022-09-06T23:56:01.823Z,6.50
2022-09-06T23:58:31.090Z,6.32
